sensor_id;sensor_type;location;lat;lon;timestamp;P1;durP1;ratioP1;P2;durP2;ratioP2
67274;SDS011;55463;52.324;5.122;2023-04-03T00:00:46;2.60;;;1.60;;
67274;SDS011;55463;52.324;5.122;2023-04-03T00:03:11;2.38;;;1.60;;
67274;SDS011;55463;52.324;5.122;2023-04-03T00:05:37;3.40;;;1.58;;
67274;SDS011;55463;52.324;5.122;2023-04-03T00:08:02;3.55;;;1.90;;
67274;SDS011;55463;52.324;5.122;2023-04-03T00:10:29;6.78;;;1.80;;
67274;SDS011;55463;52.324;5.122;2023-04-03T00:12:55;4.07;;;1.80;;
67274;SDS011;55463;52.324;5.122;2023-04-03T00:15:20;3.58;;;1.70;;
67274;SDS011;55463;52.324;5.122;2023-04-03T00:17:49;1.80;;;1.42;;
67274;SDS011;55463;52.324;5.122;2023-04-03T00:20:14;2.42;;;1.40;;
67274;SDS011;55463;52.324;5.122;2023-04-03T00:22:40;1.90;;;1.63;;
67274;SDS011;55463;52.324;5.122;2023-04-03T00:25:05;5.60;;;1.55;;
67274;SDS011;55463;52.324;5.122;2023-04-03T00:27:31;2.35;;;1.65;;
67274;SDS011;55463;52.324;5.122;2023-04-03T00:29:57;3.92;;;1.70;;
67274;SDS011;55463;52.324;5.122;2023-04-03T00:32:22;6.07;;;2.30;;
67274;SDS011;55463;52.324;5.122;2023-04-03T00:34:48;2.40;;;1.40;;
67274;SDS011;55463;52.324;5.122;2023-04-03T00:37:13;2.72;;;1.40;;
67274;SDS011;55463;52.324;5.122;2023-04-03T00:39:38;3.95;;;1.80;;
67274;SDS011;55463;52.324;5.122;2023-04-03T00:42:04;3.95;;;2.00;;
67274;SDS011;55463;52.324;5.122;2023-04-03T00:46:58;5.22;;;1.83;;
67274;SDS011;55463;52.324;5.122;2023-04-03T00:49:23;5.57;;;2.15;;
67274;SDS011;55463;52.324;5.122;2023-04-03T00:51:49;4.78;;;1.65;;
67274;SDS011;55463;52.324;5.122;2023-04-03T00:54:15;1.60;;;1.50;;
67274;SDS011;55463;52.324;5.122;2023-04-03T00:56:41;4.28;;;1.83;;
67274;SDS011;55463;52.324;5.122;2023-04-03T00:59:10;4.43;;;1.58;;
67274;SDS011;55463;52.324;5.122;2023-04-03T01:01:39;3.33;;;1.65;;
67274;SDS011;55463;52.324;5.122;2023-04-03T01:04:24;4.53;;;1.90;;
67274;SDS011;55463;52.324;5.122;2023-04-03T01:07:04;3.47;;;1.80;;
67274;SDS011;55463;52.324;5.122;2023-04-03T01:09:32;4.80;;;1.83;;
67274;SDS011;55463;52.324;5.122;2023-04-03T01:12:21;3.45;;;1.90;;
67274;SDS011;55463;52.324;5.122;2023-04-03T01:14:53;2.25;;;1.77;;
67274;SDS011;55463;52.324;5.122;2023-04-03T01:25:35;4.30;;;2.10;;
67274;SDS011;55463;52.324;5.122;2023-04-03T01:28:03;4.65;;;1.70;;
67274;SDS011;55463;52.324;5.122;2023-04-03T01:30:32;3.42;;;1.67;;
67274;SDS011;55463;52.324;5.122;2023-04-03T01:33:01;4.10;;;1.92;;
67274;SDS011;55463;52.324;5.122;2023-04-03T01:35:26;5.15;;;2.00;;
67274;SDS011;55463;52.324;5.122;2023-04-03T01:37:51;3.58;;;1.88;;
67274;SDS011;55463;52.324;5.122;2023-04-03T01:40:17;3.08;;;2.30;;
67274;SDS011;55463;52.324;5.122;2023-04-03T01:42:42;7.10;;;2.00;;
67274;SDS011;55463;52.324;5.122;2023-04-03T01:45:08;3.83;;;1.60;;
67274;SDS011;55463;52.324;5.122;2023-04-03T01:47:33;4.30;;;1.90;;
67274;SDS011;55463;52.324;5.122;2023-04-03T01:49:59;1.83;;;1.73;;
67274;SDS011;55463;52.324;5.122;2023-04-03T01:52:24;4.82;;;1.60;;
67274;SDS011;55463;52.324;5.122;2023-04-03T01:54:50;2.72;;;1.95;;
67274;SDS011;55463;52.324;5.122;2023-04-03T01:57:15;4.18;;;1.92;;
67274;SDS011;55463;52.324;5.122;2023-04-03T01:59:41;9.73;;;2.25;;
67274;SDS011;55463;52.324;5.122;2023-04-03T02:02:07;5.07;;;1.75;;
67274;SDS011;55463;52.324;5.122;2023-04-03T02:04:32;4.05;;;1.98;;
67274;SDS011;55463;52.324;5.122;2023-04-03T02:06:58;3.75;;;2.00;;
67274;SDS011;55463;52.324;5.122;2023-04-03T02:09:23;5.45;;;2.15;;
67274;SDS011;55463;52.324;5.122;2023-04-03T02:11:49;5.97;;;2.38;;
67274;SDS011;55463;52.324;5.122;2023-04-03T02:14:14;4.35;;;2.05;;
67274;SDS011;55463;52.324;5.122;2023-04-03T02:16:40;5.97;;;2.17;;
67274;SDS011;55463;52.324;5.122;2023-04-03T02:19:06;16.40;;;2.25;;
67274;SDS011;55463;52.324;5.122;2023-04-03T02:21:31;4.88;;;1.98;;
67274;SDS011;55463;52.324;5.122;2023-04-03T02:23:57;4.28;;;2.42;;
67274;SDS011;55463;52.324;5.122;2023-04-03T02:26:22;6.25;;;2.33;;
67274;SDS011;55463;52.324;5.122;2023-04-03T02:28:48;7.68;;;2.13;;
67274;SDS011;55463;52.324;5.122;2023-04-03T02:31:13;4.57;;;2.10;;
67274;SDS011;55463;52.324;5.122;2023-04-03T02:33:39;5.85;;;2.15;;
67274;SDS011;55463;52.324;5.122;2023-04-03T02:36:05;3.55;;;2.05;;
67274;SDS011;55463;52.324;5.122;2023-04-03T02:38:32;4.50;;;2.30;;
67274;SDS011;55463;52.324;5.122;2023-04-03T02:41:05;4.13;;;2.63;;
67274;SDS011;55463;52.324;5.122;2023-04-03T02:43:32;4.85;;;2.13;;
67274;SDS011;55463;52.324;5.122;2023-04-03T02:45:57;5.18;;;2.17;;
67274;SDS011;55463;52.324;5.122;2023-04-03T02:48:23;7.07;;;2.75;;
67274;SDS011;55463;52.324;5.122;2023-04-03T02:50:48;3.50;;;2.13;;
67274;SDS011;55463;52.324;5.122;2023-04-03T02:53:14;5.25;;;2.17;;
67274;SDS011;55463;52.324;5.122;2023-04-03T02:55:40;5.75;;;2.10;;
67274;SDS011;55463;52.324;5.122;2023-04-03T02:58:05;5.00;;;2.30;;
67274;SDS011;55463;52.324;5.122;2023-04-03T03:00:31;4.50;;;2.20;;
67274;SDS011;55463;52.324;5.122;2023-04-03T03:02:56;6.78;;;2.28;;
67274;SDS011;55463;52.324;5.122;2023-04-03T03:05:22;5.32;;;2.05;;
67274;SDS011;55463;52.324;5.122;2023-04-03T03:07:47;6.63;;;2.20;;
67274;SDS011;55463;52.324;5.122;2023-04-03T03:10:13;5.85;;;2.30;;
67274;SDS011;55463;52.324;5.122;2023-04-03T03:12:38;4.43;;;2.00;;
67274;SDS011;55463;52.324;5.122;2023-04-03T03:15:05;8.73;;;2.33;;
67274;SDS011;55463;52.324;5.122;2023-04-03T03:17:32;5.13;;;2.00;;
67274;SDS011;55463;52.324;5.122;2023-04-03T03:19:57;4.63;;;1.90;;
67274;SDS011;55463;52.324;5.122;2023-04-03T03:22:23;8.23;;;2.30;;
67274;SDS011;55463;52.324;5.122;2023-04-03T03:24:48;3.83;;;2.15;;
67274;SDS011;55463;52.324;5.122;2023-04-03T03:27:13;4.15;;;2.00;;
67274;SDS011;55463;52.324;5.122;2023-04-03T03:29:41;9.38;;;2.60;;
67274;SDS011;55463;52.324;5.122;2023-04-03T03:32:07;7.15;;;2.45;;
67274;SDS011;55463;52.324;5.122;2023-04-03T03:34:32;7.80;;;2.20;;
67274;SDS011;55463;52.324;5.122;2023-04-03T03:36:57;4.65;;;2.38;;
67274;SDS011;55463;52.324;5.122;2023-04-03T03:39:23;8.30;;;2.47;;
67274;SDS011;55463;52.324;5.122;2023-04-03T03:41:48;7.38;;;2.28;;
67274;SDS011;55463;52.324;5.122;2023-04-03T03:44:14;6.45;;;2.67;;
67274;SDS011;55463;52.324;5.122;2023-04-03T03:46:40;4.38;;;2.20;;
67274;SDS011;55463;52.324;5.122;2023-04-03T03:49:05;2.35;;;1.98;;
67274;SDS011;55463;52.324;5.122;2023-04-03T03:51:31;6.88;;;2.20;;
67274;SDS011;55463;52.324;5.122;2023-04-03T03:53:56;3.03;;;2.00;;
67274;SDS011;55463;52.324;5.122;2023-04-03T03:56:21;3.20;;;2.13;;
67274;SDS011;55463;52.324;5.122;2023-04-03T03:58:47;9.57;;;2.67;;
67274;SDS011;55463;52.324;5.122;2023-04-03T04:01:14;3.40;;;2.03;;
67274;SDS011;55463;52.324;5.122;2023-04-03T04:03:40;4.82;;;2.30;;
67274;SDS011;55463;52.324;5.122;2023-04-03T04:06:06;10.25;;;2.53;;
67274;SDS011;55463;52.324;5.122;2023-04-03T04:08:31;7.47;;;2.40;;
67274;SDS011;55463;52.324;5.122;2023-04-03T04:10:56;9.07;;;2.45;;
67274;SDS011;55463;52.324;5.122;2023-04-03T04:13:22;4.43;;;2.20;;
67274;SDS011;55463;52.324;5.122;2023-04-03T04:15:47;7.35;;;2.22;;
67274;SDS011;55463;52.324;5.122;2023-04-03T04:18:13;5.47;;;2.50;;
67274;SDS011;55463;52.324;5.122;2023-04-03T04:20:38;6.95;;;2.50;;
67274;SDS011;55463;52.324;5.122;2023-04-03T04:23:03;6.70;;;2.17;;
67274;SDS011;55463;52.324;5.122;2023-04-03T04:25:29;4.68;;;2.13;;
67274;SDS011;55463;52.324;5.122;2023-04-03T04:27:55;4.10;;;2.15;;
67274;SDS011;55463;52.324;5.122;2023-04-03T04:30:20;4.68;;;2.45;;
67274;SDS011;55463;52.324;5.122;2023-04-03T04:32:45;4.75;;;2.45;;
67274;SDS011;55463;52.324;5.122;2023-04-03T04:35:11;5.18;;;2.25;;
67274;SDS011;55463;52.324;5.122;2023-04-03T04:37:37;4.05;;;2.40;;
67274;SDS011;55463;52.324;5.122;2023-04-03T04:40:02;3.38;;;2.20;;
67274;SDS011;55463;52.324;5.122;2023-04-03T04:42:28;6.38;;;2.17;;
67274;SDS011;55463;52.324;5.122;2023-04-03T04:44:54;5.70;;;2.58;;
67274;SDS011;55463;52.324;5.122;2023-04-03T04:47:19;7.15;;;2.58;;
67274;SDS011;55463;52.324;5.122;2023-04-03T04:49:45;6.60;;;2.30;;
67274;SDS011;55463;52.324;5.122;2023-04-03T04:52:12;5.13;;;2.30;;
67274;SDS011;55463;52.324;5.122;2023-04-03T04:54:37;8.30;;;2.70;;
67274;SDS011;55463;52.324;5.122;2023-04-03T04:57:03;9.95;;;2.55;;
67274;SDS011;55463;52.324;5.122;2023-04-03T04:59:28;6.63;;;2.53;;
67274;SDS011;55463;52.324;5.122;2023-04-03T05:01:54;5.88;;;2.17;;
67274;SDS011;55463;52.324;5.122;2023-04-03T05:04:19;3.83;;;2.08;;
67274;SDS011;55463;52.324;5.122;2023-04-03T05:06:45;3.30;;;2.13;;
67274;SDS011;55463;52.324;5.122;2023-04-03T05:09:10;4.15;;;2.22;;
67274;SDS011;55463;52.324;5.122;2023-04-03T05:11:36;5.32;;;2.35;;
67274;SDS011;55463;52.324;5.122;2023-04-03T05:14:01;7.05;;;2.70;;
67274;SDS011;55463;52.324;5.122;2023-04-03T05:16:26;5.85;;;2.30;;
67274;SDS011;55463;52.324;5.122;2023-04-03T05:18:52;5.65;;;2.25;;
67274;SDS011;55463;52.324;5.122;2023-04-03T05:21:17;7.95;;;2.83;;
67274;SDS011;55463;52.324;5.122;2023-04-03T05:23:43;6.30;;;2.35;;
67274;SDS011;55463;52.324;5.122;2023-04-03T05:26:09;6.57;;;2.25;;
67274;SDS011;55463;52.324;5.122;2023-04-03T05:28:34;6.47;;;2.55;;
67274;SDS011;55463;52.324;5.122;2023-04-03T05:31:00;5.78;;;2.60;;
67274;SDS011;55463;52.324;5.122;2023-04-03T05:33:25;5.28;;;2.28;;
67274;SDS011;55463;52.324;5.122;2023-04-03T05:35:52;3.42;;;2.00;;
67274;SDS011;55463;52.324;5.122;2023-04-03T05:38:18;4.22;;;2.20;;
67274;SDS011;55463;52.324;5.122;2023-04-03T05:40:43;5.25;;;2.28;;
67274;SDS011;55463;52.324;5.122;2023-04-03T05:43:09;8.65;;;2.78;;
67274;SDS011;55463;52.324;5.122;2023-04-03T05:45:35;5.13;;;2.10;;
67274;SDS011;55463;52.324;5.122;2023-04-03T05:48:00;5.90;;;2.28;;
67274;SDS011;55463;52.324;5.122;2023-04-03T05:50:27;4.93;;;2.60;;
67274;SDS011;55463;52.324;5.122;2023-04-03T05:52:52;7.95;;;2.28;;
67274;SDS011;55463;52.324;5.122;2023-04-03T05:55:22;6.40;;;2.03;;
67274;SDS011;55463;52.324;5.122;2023-04-03T05:57:47;3.85;;;2.33;;
67274;SDS011;55463;52.324;5.122;2023-04-03T06:00:13;6.13;;;2.72;;
67274;SDS011;55463;52.324;5.122;2023-04-03T06:02:42;5.95;;;2.50;;
67274;SDS011;55463;52.324;5.122;2023-04-03T06:05:08;6.15;;;2.20;;
67274;SDS011;55463;52.324;5.122;2023-04-03T06:07:36;7.88;;;2.78;;
67274;SDS011;55463;52.324;5.122;2023-04-03T06:10:03;7.68;;;2.22;;
67274;SDS011;55463;52.324;5.122;2023-04-03T06:12:29;8.48;;;2.42;;
67274;SDS011;55463;52.324;5.122;2023-04-03T06:14:55;7.15;;;2.58;;
67274;SDS011;55463;52.324;5.122;2023-04-03T06:17:21;5.50;;;2.30;;
67274;SDS011;55463;52.324;5.122;2023-04-03T06:19:46;7.25;;;2.53;;
67274;SDS011;55463;52.324;5.122;2023-04-03T06:22:12;5.70;;;2.30;;
67274;SDS011;55463;52.324;5.122;2023-04-03T06:24:38;8.38;;;2.60;;
67274;SDS011;55463;52.324;5.122;2023-04-03T06:27:04;3.97;;;2.22;;
67274;SDS011;55463;52.324;5.122;2023-04-03T06:29:29;4.60;;;2.28;;
67274;SDS011;55463;52.324;5.122;2023-04-03T06:31:55;6.03;;;2.50;;
67274;SDS011;55463;52.324;5.122;2023-04-03T06:34:21;8.52;;;2.78;;
67274;SDS011;55463;52.324;5.122;2023-04-03T06:36:47;4.10;;;2.15;;
67274;SDS011;55463;52.324;5.122;2023-04-03T06:39:14;9.07;;;2.45;;
67274;SDS011;55463;52.324;5.122;2023-04-03T06:41:41;7.07;;;2.42;;
67274;SDS011;55463;52.324;5.122;2023-04-03T06:44:07;5.57;;;2.20;;
67274;SDS011;55463;52.324;5.122;2023-04-03T06:46:36;6.88;;;2.90;;
67274;SDS011;55463;52.324;5.122;2023-04-03T06:49:02;8.55;;;2.50;;
67274;SDS011;55463;52.324;5.122;2023-04-03T06:51:28;5.43;;;2.40;;
67274;SDS011;55463;52.324;5.122;2023-04-03T06:53:55;5.80;;;2.33;;
67274;SDS011;55463;52.324;5.122;2023-04-03T06:56:22;5.85;;;2.42;;
67274;SDS011;55463;52.324;5.122;2023-04-03T06:58:49;6.50;;;2.33;;
67274;SDS011;55463;52.324;5.122;2023-04-03T07:01:16;5.63;;;2.30;;
67274;SDS011;55463;52.324;5.122;2023-04-03T07:03:42;7.97;;;2.50;;
67274;SDS011;55463;52.324;5.122;2023-04-03T07:06:09;3.95;;;2.50;;
67274;SDS011;55463;52.324;5.122;2023-04-03T07:08:36;10.43;;;2.33;;
67274;SDS011;55463;52.324;5.122;2023-04-03T07:11:02;2.92;;;2.17;;
67274;SDS011;55463;52.324;5.122;2023-04-03T07:13:27;7.13;;;2.28;;
67274;SDS011;55463;52.324;5.122;2023-04-03T07:15:53;8.63;;;2.40;;
67274;SDS011;55463;52.324;5.122;2023-04-03T07:18:19;5.15;;;2.55;;
67274;SDS011;55463;52.324;5.122;2023-04-03T07:20:44;4.55;;;2.53;;
67274;SDS011;55463;52.324;5.122;2023-04-03T07:23:10;7.20;;;2.40;;
67274;SDS011;55463;52.324;5.122;2023-04-03T07:25:36;10.07;;;2.67;;
67274;SDS011;55463;52.324;5.122;2023-04-03T07:28:02;4.28;;;2.20;;
67274;SDS011;55463;52.324;5.122;2023-04-03T07:30:28;9.35;;;2.60;;
67274;SDS011;55463;52.324;5.122;2023-04-03T07:32:54;6.30;;;2.63;;
67274;SDS011;55463;52.324;5.122;2023-04-03T07:35:20;6.63;;;2.42;;
67274;SDS011;55463;52.324;5.122;2023-04-03T07:37:45;4.47;;;1.90;;
67274;SDS011;55463;52.324;5.122;2023-04-03T07:40:11;3.03;;;2.00;;
67274;SDS011;55463;52.324;5.122;2023-04-03T07:42:36;4.15;;;2.10;;
67274;SDS011;55463;52.324;5.122;2023-04-03T07:45:03;7.35;;;2.47;;
67274;SDS011;55463;52.324;5.122;2023-04-03T07:47:29;5.53;;;2.22;;
67274;SDS011;55463;52.324;5.122;2023-04-03T07:49:54;5.57;;;2.08;;
67274;SDS011;55463;52.324;5.122;2023-04-03T07:52:22;3.53;;;1.90;;
67274;SDS011;55463;52.324;5.122;2023-04-03T07:54:47;5.10;;;2.25;;
67274;SDS011;55463;52.324;5.122;2023-04-03T07:57:13;5.10;;;2.20;;
67274;SDS011;55463;52.324;5.122;2023-04-03T07:59:38;4.38;;;2.13;;
67274;SDS011;55463;52.324;5.122;2023-04-03T08:02:07;4.05;;;2.22;;
67274;SDS011;55463;52.324;5.122;2023-04-03T08:04:34;8.13;;;2.28;;
67274;SDS011;55463;52.324;5.122;2023-04-03T08:07:00;3.10;;;1.85;;
67274;SDS011;55463;52.324;5.122;2023-04-03T08:09:25;4.45;;;2.05;;
67274;SDS011;55463;52.324;5.122;2023-04-03T08:11:51;9.00;;;2.10;;
67274;SDS011;55463;52.324;5.122;2023-04-03T08:14:18;6.18;;;2.00;;
67274;SDS011;55463;52.324;5.122;2023-04-03T08:16:45;4.93;;;2.13;;
67274;SDS011;55463;52.324;5.122;2023-04-03T08:19:11;5.00;;;1.80;;
67274;SDS011;55463;52.324;5.122;2023-04-03T08:21:39;4.70;;;2.00;;
67274;SDS011;55463;52.324;5.122;2023-04-03T08:24:06;5.53;;;1.90;;
67274;SDS011;55463;52.324;5.122;2023-04-03T08:26:32;5.50;;;1.88;;
67274;SDS011;55463;52.324;5.122;2023-04-03T08:28:58;4.57;;;1.90;;
67274;SDS011;55463;52.324;5.122;2023-04-03T08:31:23;4.85;;;1.80;;
67274;SDS011;55463;52.324;5.122;2023-04-03T08:33:49;3.53;;;1.88;;
67274;SDS011;55463;52.324;5.122;2023-04-03T08:38:45;3.88;;;1.90;;
67274;SDS011;55463;52.324;5.122;2023-04-03T08:49:47;1.80;;;1.70;;
67274;SDS011;55463;52.324;5.122;2023-04-03T08:52:38;5.43;;;2.10;;
67274;SDS011;55463;52.324;5.122;2023-04-03T08:55:20;5.63;;;2.00;;
67274;SDS011;55463;52.324;5.122;2023-04-03T08:57:51;5.70;;;1.70;;
67274;SDS011;55463;52.324;5.122;2023-04-03T09:00:25;7.00;;;2.03;;
67274;SDS011;55463;52.324;5.122;2023-04-03T09:02:55;3.13;;;1.67;;
67274;SDS011;55463;52.324;5.122;2023-04-03T09:07:59;6.35;;;1.67;;
67274;SDS011;55463;52.324;5.122;2023-04-03T09:10:32;4.43;;;1.65;;
67274;SDS011;55463;52.324;5.122;2023-04-03T09:13:13;5.25;;;1.60;;
67274;SDS011;55463;52.324;5.122;2023-04-03T09:15:52;2.10;;;1.67;;
67274;SDS011;55463;52.324;5.122;2023-04-03T09:18:20;3.38;;;1.58;;
67274;SDS011;55463;52.324;5.122;2023-04-03T09:23:30;1.65;;;1.45;;
67274;SDS011;55463;52.324;5.122;2023-04-03T09:26:03;3.80;;;1.80;;
67274;SDS011;55463;52.324;5.122;2023-04-03T09:28:35;6.65;;;1.60;;
67274;SDS011;55463;52.324;5.122;2023-04-03T09:31:11;3.08;;;1.45;;
67274;SDS011;55463;52.324;5.122;2023-04-03T09:33:53;1.90;;;1.25;;
67274;SDS011;55463;52.324;5.122;2023-04-03T09:39:49;2.75;;;1.60;;
67274;SDS011;55463;52.324;5.122;2023-04-03T09:42:19;2.33;;;1.60;;
67274;SDS011;55463;52.324;5.122;2023-04-03T09:44:58;2.22;;;1.40;;
67274;SDS011;55463;52.324;5.122;2023-04-03T09:47:33;2.15;;;1.38;;
67274;SDS011;55463;52.324;5.122;2023-04-03T09:52:41;2.83;;;1.55;;
67274;SDS011;55463;52.324;5.122;2023-04-03T09:57:55;6.63;;;1.80;;
67274;SDS011;55463;52.324;5.122;2023-04-03T10:00:33;5.55;;;1.13;;
67274;SDS011;55463;52.324;5.122;2023-04-03T10:02:58;8.38;;;1.60;;
67274;SDS011;55463;52.324;5.122;2023-04-03T10:05:34;2.85;;;1.45;;
67274;SDS011;55463;52.324;5.122;2023-04-03T10:10:38;3.13;;;1.20;;
67274;SDS011;55463;52.324;5.122;2023-04-03T10:15:41;7.05;;;1.88;;
67274;SDS011;55463;52.324;5.122;2023-04-03T10:18:55;2.97;;;1.40;;
67274;SDS011;55463;52.324;5.122;2023-04-03T10:21:13;1.10;;;0.90;;
67274;SDS011;55463;52.324;5.122;2023-04-03T10:32:13;0.88;;;0.85;;
67274;SDS011;55463;52.324;5.122;2023-04-03T10:34:43;5.68;;;1.15;;
67274;SDS011;55463;52.324;5.122;2023-04-03T10:45:18;2.38;;;1.10;;
67274;SDS011;55463;52.324;5.122;2023-04-03T10:48:01;1.13;;;0.85;;
67274;SDS011;55463;52.324;5.122;2023-04-03T10:56:03;1.88;;;1.02;;
67274;SDS011;55463;52.324;5.122;2023-04-03T10:58:53;1.00;;;0.88;;
67274;SDS011;55463;52.324;5.122;2023-04-03T11:01:28;3.08;;;1.10;;
67274;SDS011;55463;52.324;5.122;2023-04-03T11:03:58;3.45;;;1.00;;
67274;SDS011;55463;52.324;5.122;2023-04-03T11:06:26;1.95;;;1.20;;
67274;SDS011;55463;52.324;5.122;2023-04-03T11:09:02;1.67;;;1.17;;
67274;SDS011;55463;52.324;5.122;2023-04-03T11:11:34;1.45;;;1.20;;
67274;SDS011;55463;52.324;5.122;2023-04-03T11:14:14;3.17;;;1.05;;
67274;SDS011;55463;52.324;5.122;2023-04-03T11:16:47;2.10;;;1.20;;
67274;SDS011;55463;52.324;5.122;2023-04-03T11:19:17;2.30;;;1.30;;
67274;SDS011;55463;52.324;5.122;2023-04-03T11:21:56;4.55;;;1.20;;
67274;SDS011;55463;52.324;5.122;2023-04-03T11:24:27;2.03;;;1.08;;
67274;SDS011;55463;52.324;5.122;2023-04-03T11:26:56;2.67;;;0.98;;
67274;SDS011;55463;52.324;5.122;2023-04-03T11:29:26;1.30;;;1.20;;
67274;SDS011;55463;52.324;5.122;2023-04-03T11:34:41;3.85;;;1.10;;
67274;SDS011;55463;52.324;5.122;2023-04-03T11:40:07;5.80;;;1.10;;
67274;SDS011;55463;52.324;5.122;2023-04-03T11:42:47;2.95;;;1.20;;
67274;SDS011;55463;52.324;5.122;2023-04-03T11:48:44;2.13;;;1.20;;
67274;SDS011;55463;52.324;5.122;2023-04-03T11:50:47;4.80;;;1.25;;
67274;SDS011;55463;52.324;5.122;2023-04-03T12:21:17;2.25;;;1.20;;
67274;SDS011;55463;52.324;5.122;2023-04-03T12:38:11;2.30;;;1.60;;
67274;SDS011;55463;52.324;5.122;2023-04-03T12:46:16;2.50;;;1.17;;
67274;SDS011;55463;52.324;5.122;2023-04-03T12:48:50;3.00;;;1.30;;
67274;SDS011;55463;52.324;5.122;2023-04-03T12:51:34;2.42;;;1.20;;
67274;SDS011;55463;52.324;5.122;2023-04-03T12:54:01;1.70;;;1.30;;
67274;SDS011;55463;52.324;5.122;2023-04-03T12:56:30;4.27;;;1.47;;
67274;SDS011;55463;52.324;5.122;2023-04-03T13:01:55;8.85;;;1.80;;
67274;SDS011;55463;52.324;5.122;2023-04-03T13:04:25;4.13;;;1.08;;
67274;SDS011;55463;52.324;5.122;2023-04-03T13:06:52;8.40;;;2.58;;
67274;SDS011;55463;52.324;5.122;2023-04-03T13:09:19;7.88;;;1.83;;
67274;SDS011;55463;52.324;5.122;2023-04-03T13:11:46;2.65;;;1.50;;
67274;SDS011;55463;52.324;5.122;2023-04-03T13:14:15;1.55;;;1.00;;
67274;SDS011;55463;52.324;5.122;2023-04-03T13:16:42;1.23;;;1.13;;
67274;SDS011;55463;52.324;5.122;2023-04-03T13:19:17;2.53;;;1.20;;
67274;SDS011;55463;52.324;5.122;2023-04-03T13:21:43;6.18;;;1.55;;
67274;SDS011;55463;52.324;5.122;2023-04-03T13:24:09;3.05;;;1.33;;
67274;SDS011;55463;52.324;5.122;2023-04-03T13:26:36;2.17;;;1.40;;
67274;SDS011;55463;52.324;5.122;2023-04-03T13:29:03;9.70;;;1.65;;
67274;SDS011;55463;52.324;5.122;2023-04-03T13:31:32;2.28;;;1.58;;
67274;SDS011;55463;52.324;5.122;2023-04-03T13:34:10;2.92;;;1.42;;
67274;SDS011;55463;52.324;5.122;2023-04-03T13:36:39;2.67;;;1.42;;
67274;SDS011;55463;52.324;5.122;2023-04-03T13:41:38;4.38;;;1.83;;
67274;SDS011;55463;52.324;5.122;2023-04-03T13:44:16;1.60;;;1.48;;
67274;SDS011;55463;52.324;5.122;2023-04-03T13:46:50;3.55;;;1.58;;
67274;SDS011;55463;52.324;5.122;2023-04-03T13:49:35;5.00;;;1.70;;
67274;SDS011;55463;52.324;5.122;2023-04-03T13:52:48;6.18;;;1.50;;
67274;SDS011;55463;52.324;5.122;2023-04-03T13:54:52;7.32;;;1.50;;
67274;SDS011;55463;52.324;5.122;2023-04-03T13:57:20;1.70;;;1.30;;
67274;SDS011;55463;52.324;5.122;2023-04-03T13:59:46;2.65;;;1.40;;
67274;SDS011;55463;52.324;5.122;2023-04-03T14:02:22;5.05;;;1.73;;
67274;SDS011;55463;52.324;5.122;2023-04-03T14:04:56;1.70;;;1.30;;
67274;SDS011;55463;52.324;5.122;2023-04-03T14:09:51;1.77;;;1.63;;
67274;SDS011;55463;52.324;5.122;2023-04-03T14:14:45;2.08;;;1.50;;
67274;SDS011;55463;52.324;5.122;2023-04-03T14:17:16;6.40;;;1.70;;
67274;SDS011;55463;52.324;5.122;2023-04-03T14:19:43;4.45;;;1.38;;
67274;SDS011;55463;52.324;5.122;2023-04-03T14:22:21;2.50;;;1.42;;
67274;SDS011;55463;52.324;5.122;2023-04-03T14:24:55;2.33;;;1.73;;
67274;SDS011;55463;52.324;5.122;2023-04-03T14:27:28;2.25;;;1.50;;
67274;SDS011;55463;52.324;5.122;2023-04-03T14:29:56;3.83;;;1.52;;
67274;SDS011;55463;52.324;5.122;2023-04-03T14:32:23;1.92;;;1.60;;
67274;SDS011;55463;52.324;5.122;2023-04-03T14:34:50;2.50;;;1.70;;
67274;SDS011;55463;52.324;5.122;2023-04-03T14:37:19;2.38;;;1.67;;
67274;SDS011;55463;52.324;5.122;2023-04-03T14:39:48;4.32;;;1.77;;
67274;SDS011;55463;52.324;5.122;2023-04-03T14:42:15;5.63;;;1.75;;
67274;SDS011;55463;52.324;5.122;2023-04-03T14:44:43;3.53;;;1.80;;
67274;SDS011;55463;52.324;5.122;2023-04-03T14:47:10;2.80;;;1.63;;
67274;SDS011;55463;52.324;5.122;2023-04-03T14:49:37;2.75;;;1.60;;
67274;SDS011;55463;52.324;5.122;2023-04-03T14:52:06;3.63;;;1.63;;
67274;SDS011;55463;52.324;5.122;2023-04-03T14:54:31;3.90;;;1.52;;
67274;SDS011;55463;52.324;5.122;2023-04-03T14:56:58;1.58;;;1.40;;
67274;SDS011;55463;52.324;5.122;2023-04-03T14:59:28;3.78;;;1.60;;
67274;SDS011;55463;52.324;5.122;2023-04-03T15:01:55;3.28;;;1.50;;
67274;SDS011;55463;52.324;5.122;2023-04-03T15:04:20;2.85;;;1.70;;
67274;SDS011;55463;52.324;5.122;2023-04-03T15:06:46;3.38;;;1.88;;
67274;SDS011;55463;52.324;5.122;2023-04-03T15:09:23;4.43;;;2.00;;
67274;SDS011;55463;52.324;5.122;2023-04-03T15:11:50;3.58;;;1.63;;
67274;SDS011;55463;52.324;5.122;2023-04-03T15:14:18;3.30;;;1.63;;
67274;SDS011;55463;52.324;5.122;2023-04-03T15:16:43;4.63;;;1.48;;
67274;SDS011;55463;52.324;5.122;2023-04-03T15:19:10;2.50;;;1.70;;
67274;SDS011;55463;52.324;5.122;2023-04-03T15:21:36;2.10;;;1.58;;
67274;SDS011;55463;52.324;5.122;2023-04-03T15:24:02;3.92;;;1.52;;
67274;SDS011;55463;52.324;5.122;2023-04-03T15:26:27;1.70;;;1.50;;
67274;SDS011;55463;52.324;5.122;2023-04-03T15:28:53;3.80;;;1.67;;
67274;SDS011;55463;52.324;5.122;2023-04-03T15:31:18;3.13;;;1.50;;
67274;SDS011;55463;52.324;5.122;2023-04-03T15:33:44;2.80;;;1.50;;
67274;SDS011;55463;52.324;5.122;2023-04-03T15:36:09;6.57;;;1.27;;
67274;SDS011;55463;52.324;5.122;2023-04-03T15:38:37;2.55;;;1.40;;
67274;SDS011;55463;52.324;5.122;2023-04-03T15:41:03;3.03;;;1.58;;
67274;SDS011;55463;52.324;5.122;2023-04-03T15:43:31;2.05;;;1.58;;
67274;SDS011;55463;52.324;5.122;2023-04-03T15:45:58;1.50;;;1.40;;
67274;SDS011;55463;52.324;5.122;2023-04-03T15:48:25;4.35;;;1.52;;
67274;SDS011;55463;52.324;5.122;2023-04-03T15:50:52;1.73;;;1.25;;
67274;SDS011;55463;52.324;5.122;2023-04-03T15:53:17;3.83;;;1.52;;
67274;SDS011;55463;52.324;5.122;2023-04-03T15:55:43;3.58;;;1.55;;
67274;SDS011;55463;52.324;5.122;2023-04-03T15:58:08;3.80;;;1.80;;
67274;SDS011;55463;52.324;5.122;2023-04-03T16:00:33;4.85;;;1.80;;
67274;SDS011;55463;52.324;5.122;2023-04-03T16:03:04;4.60;;;1.75;;
67274;SDS011;55463;52.324;5.122;2023-04-03T16:05:35;3.55;;;1.75;;
67274;SDS011;55463;52.324;5.122;2023-04-03T16:08:04;4.13;;;1.70;;
67274;SDS011;55463;52.324;5.122;2023-04-03T16:10:33;2.30;;;1.75;;
67274;SDS011;55463;52.324;5.122;2023-04-03T16:12:59;3.88;;;1.67;;
67274;SDS011;55463;52.324;5.122;2023-04-03T16:15:25;2.55;;;1.40;;
67274;SDS011;55463;52.324;5.122;2023-04-03T16:17:51;2.28;;;1.60;;
67274;SDS011;55463;52.324;5.122;2023-04-03T16:20:17;3.58;;;1.65;;
67274;SDS011;55463;52.324;5.122;2023-04-03T16:22:43;2.33;;;1.60;;
67274;SDS011;55463;52.324;5.122;2023-04-03T16:25:09;5.25;;;2.05;;
67274;SDS011;55463;52.324;5.122;2023-04-03T16:27:35;6.13;;;4.47;;
67274;SDS011;55463;52.324;5.122;2023-04-03T16:30:01;8.63;;;5.05;;
67274;SDS011;55463;52.324;5.122;2023-04-03T16:32:27;6.25;;;2.78;;
67274;SDS011;55463;52.324;5.122;2023-04-03T16:34:55;3.47;;;2.47;;
67274;SDS011;55463;52.324;5.122;2023-04-03T16:37:21;5.22;;;2.10;;
67274;SDS011;55463;52.324;5.122;2023-04-03T16:39:46;7.95;;;2.55;;
67274;SDS011;55463;52.324;5.122;2023-04-03T16:42:12;4.40;;;1.92;;
67274;SDS011;55463;52.324;5.122;2023-04-03T16:44:40;2.97;;;1.73;;
67274;SDS011;55463;52.324;5.122;2023-04-03T16:47:08;3.78;;;1.92;;
67274;SDS011;55463;52.324;5.122;2023-04-03T16:49:34;4.25;;;2.00;;
67274;SDS011;55463;52.324;5.122;2023-04-03T16:52:00;4.97;;;1.98;;
67274;SDS011;55463;52.324;5.122;2023-04-03T16:54:27;3.50;;;1.70;;
67274;SDS011;55463;52.324;5.122;2023-04-03T16:56:53;4.88;;;1.98;;
67274;SDS011;55463;52.324;5.122;2023-04-03T16:59:18;4.28;;;2.30;;
67274;SDS011;55463;52.324;5.122;2023-04-03T17:01:44;3.78;;;2.08;;